»·PEaware :: N45DM KMIA-MBPV

N45DM :: KMIA-MBPV

FLIGHT INFORMATION

Flight Status: Arrived
Operator: Privately registered:
United States
More flights under this callsign
Pilot: Mike H. (17104)
Aircraft: BOMBARDIER BD-100 CHALLENGER 300
(CL30)
More flights by this aircraft type
Origin: KMIA Miami Intl
United States
Destination: MBPV Providenciales Intl
Turks and Caicos Islands
More flights between these airports :: More routes between these airports
Route: SKIPS2 SKIPS BR53V RAJAY A555 MICAS G648 PVN
File this flight plan on PilotEdge
Remarks:
Altitude:
(Current/Filed)
41,000ft
Speed:
(Current/Filed)
450kts
Departed: 15-Jan-18 07:33 AM
Arrived: 15-Jan-18 08:51 AM
Distance/Time
Traveled:
503nm/1:17
Distance/Time
To Go:
Arrived

Flight Plot

Page will automatically refresh every two minutes.

Flight plan parsing failed; only flown route is shown


Map Options




Map Legend


Flown Route
Filed Route
Departure Airport
Arrival Airport
Navaid (VOR, NDB)
Fix

Horizontal Profiles

Position Reports

Time Latitude Longitude Heading Altitude Ground
Speed
15-Jan-18 07:26 25.806323 -80.290268 224 10ft 0kts
15-Jan-18 07:27 25.806323 -80.290268 224 10ft 0kts
15-Jan-18 07:28 25.806323 -80.290268 224 10ft 0kts
15-Jan-18 07:29 25.806323 -80.290268 224 10ft 0kts
15-Jan-18 07:30 25.806323 -80.290268 224 10ft 0kts
15-Jan-18 07:31 25.806323 -80.290268 224 10ft 0kts
15-Jan-18 07:32 25.806323 -80.290268 224 10ft 0kts
15-Jan-18 07:33 25.805942 -80.290516 177 10ft 2kts
15-Jan-18 07:34 25.804597 -80.290354 154 10ft 3kts
15-Jan-18 07:35 25.804644 -80.286083 87 10ft 8kts
15-Jan-18 07:36 25.804777 -80.283250 88 10ft 15kts
15-Jan-18 07:37 25.804937 -80.279090 87 10ft 19kts
15-Jan-18 07:38 25.803921 -80.276688 268 10ft 9kts
15-Jan-18 07:39 25.803406 -80.287617 268 16ft 148kts
15-Jan-18 07:40 25.801653 -80.341891 269 3513ft 229kts
15-Jan-18 07:41 25.783612 -80.427359 223 6308ft 324kts
15-Jan-18 07:42 25.707789 -80.450185 188 11412ft 339kts
15-Jan-18 07:43 25.612880 -80.451499 182 15673ft 363kts
15-Jan-18 07:44 25.549609 -80.370129 91 19063ft 416kts
15-Jan-18 07:45 25.552453 -80.238609 87 21945ft 442kts
15-Jan-18 07:46 25.570460 -80.101879 77 24433ft 465kts
15-Jan-18 07:47 25.598505 -79.959088 77 26634ft 486kts
15-Jan-18 07:48 25.628228 -79.810053 77 28590ft 505kts
15-Jan-18 07:49 25.635451 -79.656861 104 30852ft 501kts
15-Jan-18 07:50 25.605697 -79.507106 109 33161ft 498kts
15-Jan-18 07:51 25.573098 -79.359712 109 35338ft 495kts
15-Jan-18 07:52 25.540098 -79.214080 110 37229ft 492kts
15-Jan-18 07:53 25.506393 -79.067087 110 38868ft 493kts
15-Jan-18 07:54 25.472723 -78.920885 111 40387ft 494kts
15-Jan-18 07:55 25.438600 -78.773604 110 41293ft 509kts
15-Jan-18 07:56 25.402285 -78.617642 110 41270ft 532kts
15-Jan-18 07:57 25.365789 -78.461601 110 41246ft 525kts
15-Jan-18 07:58 25.330097 -78.309978 111 41230ft 526kts
15-Jan-18 07:59 25.290077 -78.157003 119 41237ft 517kts
15-Jan-18 08:00 25.236305 -78.011576 119 41235ft 517kts
15-Jan-18 08:01 25.182339 -77.866140 119 41237ft 517kts
15-Jan-18 08:02 25.128472 -77.721487 119 41239ft 517kts
15-Jan-18 08:03 25.073897 -77.575449 119 41241ft 515kts
15-Jan-18 08:04 25.014996 -77.433467 132 41247ft 498kts
15-Jan-18 08:05 24.936431 -77.309527 134 41226ft 493kts
15-Jan-18 08:06 24.857122 -77.187075 134 41238ft 495kts
15-Jan-18 08:07 24.777259 -77.064417 134 41238ft 495kts
15-Jan-18 08:08 24.697373 -76.942161 133 41240ft 494kts
15-Jan-18 08:09 24.617692 -76.820494 133 41241ft 494kts
15-Jan-18 08:10 24.538483 -76.699606 133 41242ft 493kts
15-Jan-18 08:11 24.458496 -76.577933 133 41244ft 493kts
15-Jan-18 08:12 24.378495 -76.456558 133 41245ft 493kts
15-Jan-18 08:13 24.298297 -76.335187 133 41236ft 493kts
15-Jan-18 08:14 24.218037 -76.214033 133 41232ft 492kts
15-Jan-18 08:15 24.138292 -76.093946 133 41233ft 493kts
15-Jan-18 08:16 24.058254 -75.973707 133 41235ft 492kts
15-Jan-18 08:17 23.977865 -75.853234 133 41236ft 492kts
15-Jan-18 08:18 23.898074 -75.733944 133 41238ft 492kts
15-Jan-18 08:19 23.820206 -75.617812 133 41246ft 492kts
15-Jan-18 08:20 23.757171 -75.523996 133 41247ft 492kts
15-Jan-18 08:21 23.676771 -75.404560 133 41257ft 492kts
15-Jan-18 08:22 23.596011 -75.284913 134 41242ft 492kts
15-Jan-18 08:23 23.514806 -75.164890 134 41244ft 492kts
15-Jan-18 08:24 23.433998 -75.045755 133 41203ft 492kts
15-Jan-18 08:25 23.352946 -74.926526 133 41158ft 491kts
15-Jan-18 08:26 23.272195 -74.807976 133 41156ft 491kts
15-Jan-18 08:27 23.190886 -74.688893 133 41158ft 491kts
15-Jan-18 08:28 23.109649 -74.570202 133 41159ft 491kts
15-Jan-18 08:29 23.028347 -74.451699 132 41160ft 491kts
15-Jan-18 08:30 22.947022 -74.333498 132 41151ft 488kts
15-Jan-18 08:31 22.865952 -74.220652 138 41156ft 480kts
15-Jan-18 08:32 22.806305 -74.091055 107 40374ft 506kts
15-Jan-18 08:33 22.761869 -73.948476 113 38189ft 489kts
15-Jan-18 08:34 22.714470 -73.815640 114 36099ft 467kts
15-Jan-18 08:35 22.667344 -73.686841 115 34068ft 459kts
15-Jan-18 08:36 22.619800 -73.557947 113 32048ft 468kts
15-Jan-18 08:37 22.571249 -73.426603 112 29993ft 480kts
15-Jan-18 08:38 22.521543 -73.292491 111 27841ft 488kts
15-Jan-18 08:39 22.471245 -73.157181 110 25657ft 487kts
15-Jan-18 08:40 22.421785 -73.024591 110 21197ft 451kts
15-Jan-18 08:41 22.368432 -72.913258 117 18478ft 400kts
15-Jan-18 08:42 22.319651 -72.820390 117 16100ft 395kts
15-Jan-18 08:43 22.268860 -72.724536 118 13391ft 356kts
15-Jan-18 08:44 22.222422 -72.633636 116 10728ft 346kts
15-Jan-18 08:45 22.179518 -72.544683 116 8023ft 325kts
15-Jan-18 08:46 22.134041 -72.464654 147 5299ft 313kts
15-Jan-18 08:47 22.059991 -72.454726 176 4383ft 220kts
15-Jan-18 08:48 22.000571 -72.454393 178 4399ft 215kts
15-Jan-18 08:49 21.940947 -72.455749 179 4399ft 215kts
15-Jan-18 08:50 21.885305 -72.457768 180 4165ft 194kts
15-Jan-18 08:51 21.832398 -72.460296 180 3010ft 182kts
15-Jan-18 08:52 21.788206 -72.454386 119 1772ft 160kts
15-Jan-18 08:53 21.782912 -72.407024 95 1700ft 161kts
15-Jan-18 08:54 21.779570 -72.359515 94 1403ft 152kts
15-Jan-18 08:55 21.776396 -72.315153 95 837ft 145kts
15-Jan-18 08:56 21.774150 -72.275429 94 124ft 124kts
15-Jan-18 08:57 21.773357 -72.254792 0 20ft 5kts
15-Jan-18 08:58 21.774630 -72.254794 87 20ft 4kts

Navigation Log

Ident Type
Flight plan parsing failed, navigation log unavailable